sensor_id;sensor_type;location;lat;lon;timestamp;P1;durP1;ratioP1;P2;durP2;ratioP2
61385;SDS011;47256;18.904;-99.054;2022-11-24T00:01:28;17.38;;;9.82;;
61385;SDS011;47256;18.904;-99.054;2022-11-24T00:03:57;12.20;;;7.10;;
61385;SDS011;47256;18.904;-99.054;2022-11-24T00:06:27;15.88;;;7.40;;
61385;SDS011;47256;18.904;-99.054;2022-11-24T00:08:55;12.40;;;5.63;;
61385;SDS011;47256;18.904;-99.054;2022-11-24T00:11:26;9.70;;;5.72;;
61385;SDS011;47256;18.904;-99.054;2022-11-24T00:13:54;8.13;;;4.80;;
61385;SDS011;47256;18.904;-99.054;2022-11-24T00:16:24;12.20;;;6.47;;
61385;SDS011;47256;18.904;-99.054;2022-11-24T00:18:54;12.77;;;6.28;;
61385;SDS011;47256;18.904;-99.054;2022-11-24T00:21:22;14.75;;;6.25;;
61385;SDS011;47256;18.904;-99.054;2022-11-24T00:23:53;14.68;;;7.57;;
61385;SDS011;47256;18.904;-99.054;2022-11-24T00:26:25;15.13;;;6.63;;
61385;SDS011;47256;18.904;-99.054;2022-11-24T00:28:55;12.88;;;6.43;;
61385;SDS011;47256;18.904;-99.054;2022-11-24T00:31:32;13.43;;;5.45;;
61385;SDS011;47256;18.904;-99.054;2022-11-24T00:34:05;11.30;;;4.97;;
61385;SDS011;47256;18.904;-99.054;2022-11-24T00:36:35;11.20;;;5.28;;
61385;SDS011;47256;18.904;-99.054;2022-11-24T00:39:03;10.23;;;4.80;;
61385;SDS011;47256;18.904;-99.054;2022-11-24T00:41:34;17.38;;;5.75;;
61385;SDS011;47256;18.904;-99.054;2022-11-24T00:44:01;12.40;;;6.20;;
61385;SDS011;47256;18.904;-99.054;2022-11-24T00:46:28;13.60;;;7.05;;
61385;SDS011;47256;18.904;-99.054;2022-11-24T00:48:55;10.80;;;7.32;;
61385;SDS011;47256;18.904;-99.054;2022-11-24T00:51:26;12.75;;;7.03;;
61385;SDS011;47256;18.904;-99.054;2022-11-24T00:53:58;26.88;;;7.43;;
61385;SDS011;47256;18.904;-99.054;2022-11-24T00:56:28;11.40;;;6.35;;
61385;SDS011;47256;18.904;-99.054;2022-11-24T00:59:00;12.82;;;6.75;;
61385;SDS011;47256;18.904;-99.054;2022-11-24T01:01:28;11.30;;;6.85;;
61385;SDS011;47256;18.904;-99.054;2022-11-24T01:03:58;12.95;;;5.60;;
61385;SDS011;47256;18.904;-99.054;2022-11-24T01:06:30;15.68;;;6.28;;
61385;SDS011;47256;18.904;-99.054;2022-11-24T01:09:08;9.95;;;6.20;;
61385;SDS011;47256;18.904;-99.054;2022-11-24T01:11:38;11.48;;;5.78;;
61385;SDS011;47256;18.904;-99.054;2022-11-24T01:14:26;12.48;;;6.22;;
61385;SDS011;47256;18.904;-99.054;2022-11-24T01:16:57;13.70;;;5.80;;
61385;SDS011;47256;18.904;-99.054;2022-11-24T01:19:25;8.85;;;6.05;;
61385;SDS011;47256;18.904;-99.054;2022-11-24T01:21:53;16.73;;;6.57;;
61385;SDS011;47256;18.904;-99.054;2022-11-24T01:24:23;9.82;;;6.05;;
61385;SDS011;47256;18.904;-99.054;2022-11-24T01:26:54;12.98;;;6.38;;
61385;SDS011;47256;18.904;-99.054;2022-11-24T01:29:22;9.20;;;5.55;;
61385;SDS011;47256;18.904;-99.054;2022-11-24T01:31:51;9.40;;;5.68;;
61385;SDS011;47256;18.904;-99.054;2022-11-24T01:34:19;11.55;;;5.72;;
61385;SDS011;47256;18.904;-99.054;2022-11-24T01:36:47;11.77;;;6.25;;
61385;SDS011;47256;18.904;-99.054;2022-11-24T01:39:14;11.77;;;7.22;;
61385;SDS011;47256;18.904;-99.054;2022-11-24T01:41:43;10.52;;;7.60;;
61385;SDS011;47256;18.904;-99.054;2022-11-24T01:44:24;16.23;;;8.73;;
61385;SDS011;47256;18.904;-99.054;2022-11-24T01:47:01;12.85;;;8.20;;
61385;SDS011;47256;18.904;-99.054;2022-11-24T01:49:38;11.88;;;6.65;;
61385;SDS011;47256;18.904;-99.054;2022-11-24T01:54:50;12.48;;;6.72;;
61385;SDS011;47256;18.904;-99.054;2022-11-24T01:57:35;16.70;;;7.47;;
61385;SDS011;47256;18.904;-99.054;2022-11-24T02:00:23;14.38;;;6.60;;
61385;SDS011;47256;18.904;-99.054;2022-11-24T02:02:50;14.60;;;6.35;;
61385;SDS011;47256;18.904;-99.054;2022-11-24T02:05:22;11.38;;;6.00;;
61385;SDS011;47256;18.904;-99.054;2022-11-24T02:07:57;11.40;;;6.38;;
61385;SDS011;47256;18.904;-99.054;2022-11-24T02:10:29;17.75;;;7.18;;
61385;SDS011;47256;18.904;-99.054;2022-11-24T02:12:57;16.08;;;6.82;;
61385;SDS011;47256;18.904;-99.054;2022-11-24T02:15:28;10.73;;;6.38;;
61385;SDS011;47256;18.904;-99.054;2022-11-24T02:17:57;9.60;;;6.72;;
61385;SDS011;47256;18.904;-99.054;2022-11-24T02:20:30;10.40;;;6.32;;
61385;SDS011;47256;18.904;-99.054;2022-11-24T02:28:57;13.38;;;6.40;;
61385;SDS011;47256;18.904;-99.054;2022-11-24T02:31:27;17.30;;;5.95;;
61385;SDS011;47256;18.904;-99.054;2022-11-24T02:33:56;18.17;;;7.22;;
61385;SDS011;47256;18.904;-99.054;2022-11-24T02:36:24;20.48;;;7.15;;
61385;SDS011;47256;18.904;-99.054;2022-11-24T02:38:52;11.50;;;6.90;;
61385;SDS011;47256;18.904;-99.054;2022-11-24T02:41:21;16.02;;;7.63;;
61385;SDS011;47256;18.904;-99.054;2022-11-24T02:43:55;12.13;;;6.60;;
61385;SDS011;47256;18.904;-99.054;2022-11-24T02:46:32;25.42;;;7.22;;
61385;SDS011;47256;18.904;-99.054;2022-11-24T02:49:04;11.10;;;7.32;;
61385;SDS011;47256;18.904;-99.054;2022-11-24T02:51:34;17.25;;;7.25;;
61385;SDS011;47256;18.904;-99.054;2022-11-24T02:54:11;19.40;;;8.63;;
61385;SDS011;47256;18.904;-99.054;2022-11-24T02:56:43;15.85;;;7.10;;
61385;SDS011;47256;18.904;-99.054;2022-11-24T02:59:20;17.85;;;7.15;;
61385;SDS011;47256;18.904;-99.054;2022-11-24T03:01:49;17.88;;;9.32;;
61385;SDS011;47256;18.904;-99.054;2022-11-24T03:04:18;18.67;;;9.80;;
61385;SDS011;47256;18.904;-99.054;2022-11-24T03:06:47;12.93;;;8.60;;
61385;SDS011;47256;18.904;-99.054;2022-11-24T03:09:19;13.10;;;8.07;;
61385;SDS011;47256;18.904;-99.054;2022-11-24T03:11:47;25.05;;;9.23;;
61385;SDS011;47256;18.904;-99.054;2022-11-24T03:14:18;12.05;;;7.18;;
61385;SDS011;47256;18.904;-99.054;2022-11-24T03:16:46;16.38;;;9.25;;
61385;SDS011;47256;18.904;-99.054;2022-11-24T03:19:15;11.70;;;7.43;;
61385;SDS011;47256;18.904;-99.054;2022-11-24T03:21:47;13.23;;;7.05;;
61385;SDS011;47256;18.904;-99.054;2022-11-24T03:24:16;10.75;;;7.43;;
61385;SDS011;47256;18.904;-99.054;2022-11-24T03:26:44;13.43;;;7.22;;
61385;SDS011;47256;18.904;-99.054;2022-11-24T03:29:13;16.95;;;7.20;;
61385;SDS011;47256;18.904;-99.054;2022-11-24T03:31:43;10.10;;;6.25;;
61385;SDS011;47256;18.904;-99.054;2022-11-24T03:34:12;16.33;;;7.10;;
61385;SDS011;47256;18.904;-99.054;2022-11-24T03:36:41;11.60;;;7.20;;
61385;SDS011;47256;18.904;-99.054;2022-11-24T03:39:09;13.13;;;7.18;;
61385;SDS011;47256;18.904;-99.054;2022-11-24T03:41:38;14.13;;;7.13;;
61385;SDS011;47256;18.904;-99.054;2022-11-24T03:44:08;10.45;;;7.70;;
61385;SDS011;47256;18.904;-99.054;2022-11-24T03:46:37;11.30;;;7.32;;
61385;SDS011;47256;18.904;-99.054;2022-11-24T03:49:05;10.82;;;6.63;;
61385;SDS011;47256;18.904;-99.054;2022-11-24T03:51:34;13.85;;;7.85;;
61385;SDS011;47256;18.904;-99.054;2022-11-24T03:54:11;10.93;;;7.28;;
61385;SDS011;47256;18.904;-99.054;2022-11-24T03:56:43;10.45;;;6.40;;
61385;SDS011;47256;18.904;-99.054;2022-11-24T03:59:13;14.05;;;8.43;;
61385;SDS011;47256;18.904;-99.054;2022-11-24T04:01:46;11.70;;;7.05;;
61385;SDS011;47256;18.904;-99.054;2022-11-24T04:04:15;12.20;;;7.25;;
61385;SDS011;47256;18.904;-99.054;2022-11-24T04:06:45;12.73;;;7.93;;
61385;SDS011;47256;18.904;-99.054;2022-11-24T04:09:15;12.77;;;7.75;;
61385;SDS011;47256;18.904;-99.054;2022-11-24T04:11:44;12.38;;;7.93;;
61385;SDS011;47256;18.904;-99.054;2022-11-24T04:14:35;12.43;;;7.18;;
61385;SDS011;47256;18.904;-99.054;2022-11-24T04:17:04;10.32;;;6.43;;
61385;SDS011;47256;18.904;-99.054;2022-11-24T04:19:33;13.57;;;6.90;;
61385;SDS011;47256;18.904;-99.054;2022-11-24T04:22:03;18.67;;;7.80;;
61385;SDS011;47256;18.904;-99.054;2022-11-24T04:24:31;9.60;;;7.05;;
61385;SDS011;47256;18.904;-99.054;2022-11-24T04:26:58;11.25;;;7.13;;
61385;SDS011;47256;18.904;-99.054;2022-11-24T04:29:27;15.63;;;7.15;;
61385;SDS011;47256;18.904;-99.054;2022-11-24T04:31:56;13.43;;;7.38;;
61385;SDS011;47256;18.904;-99.054;2022-11-24T04:34:27;12.80;;;7.50;;
61385;SDS011;47256;18.904;-99.054;2022-11-24T04:37:00;16.30;;;7.53;;
61385;SDS011;47256;18.904;-99.054;2022-11-24T04:39:28;12.73;;;7.80;;
61385;SDS011;47256;18.904;-99.054;2022-11-24T04:41:55;12.63;;;7.70;;
61385;SDS011;47256;18.904;-99.054;2022-11-24T04:44:23;19.83;;;8.05;;
61385;SDS011;47256;18.904;-99.054;2022-11-24T04:46:50;15.07;;;7.05;;
61385;SDS011;47256;18.904;-99.054;2022-11-24T04:49:17;13.57;;;7.10;;
61385;SDS011;47256;18.904;-99.054;2022-11-24T04:51:47;21.73;;;8.07;;
61385;SDS011;47256;18.904;-99.054;2022-11-24T04:54:15;13.82;;;7.85;;
61385;SDS011;47256;18.904;-99.054;2022-11-24T04:57:13;14.27;;;7.13;;
61385;SDS011;47256;18.904;-99.054;2022-11-24T04:59:52;10.73;;;7.03;;
61385;SDS011;47256;18.904;-99.054;2022-11-24T05:02:20;9.15;;;6.63;;
61385;SDS011;47256;18.904;-99.054;2022-11-24T05:04:48;9.65;;;7.18;;
61385;SDS011;47256;18.904;-99.054;2022-11-24T05:07:17;10.85;;;7.30;;
61385;SDS011;47256;18.904;-99.054;2022-11-24T05:09:46;9.25;;;6.30;;
61385;SDS011;47256;18.904;-99.054;2022-11-24T05:12:33;9.60;;;6.50;;
61385;SDS011;47256;18.904;-99.054;2022-11-24T05:15:01;8.98;;;6.22;;
61385;SDS011;47256;18.904;-99.054;2022-11-24T05:17:34;15.40;;;7.38;;
61385;SDS011;47256;18.904;-99.054;2022-11-24T05:20:03;17.73;;;7.45;;
61385;SDS011;47256;18.904;-99.054;2022-11-24T05:22:31;14.27;;;8.27;;
61385;SDS011;47256;18.904;-99.054;2022-11-24T05:24:59;16.95;;;8.98;;
61385;SDS011;47256;18.904;-99.054;2022-11-24T05:27:27;17.65;;;8.38;;
61385;SDS011;47256;18.904;-99.054;2022-11-24T05:29:55;13.32;;;8.05;;
61385;SDS011;47256;18.904;-99.054;2022-11-24T05:32:22;14.63;;;8.25;;
61385;SDS011;47256;18.904;-99.054;2022-11-24T05:34:50;13.32;;;7.85;;
61385;SDS011;47256;18.904;-99.054;2022-11-24T05:37:19;13.00;;;7.90;;
61385;SDS011;47256;18.904;-99.054;2022-11-24T05:39:46;14.93;;;8.25;;
61385;SDS011;47256;18.904;-99.054;2022-11-24T05:42:13;12.75;;;7.80;;
61385;SDS011;47256;18.904;-99.054;2022-11-24T05:44:59;12.30;;;8.25;;
61385;SDS011;47256;18.904;-99.054;2022-11-24T05:47:28;14.98;;;8.73;;
61385;SDS011;47256;18.904;-99.054;2022-11-24T05:49:59;12.85;;;7.97;;
61385;SDS011;47256;18.904;-99.054;2022-11-24T05:52:27;14.75;;;8.07;;
61385;SDS011;47256;18.904;-99.054;2022-11-24T05:54:56;13.55;;;7.90;;
61385;SDS011;47256;18.904;-99.054;2022-11-24T05:57:26;21.08;;;6.93;;
61385;SDS011;47256;18.904;-99.054;2022-11-24T05:59:53;10.77;;;7.18;;
61385;SDS011;47256;18.904;-99.054;2022-11-24T06:05:22;10.05;;;6.60;;
61385;SDS011;47256;18.904;-99.054;2022-11-24T06:07:50;12.18;;;7.20;;
61385;SDS011;47256;18.904;-99.054;2022-11-24T06:10:19;11.15;;;6.85;;
61385;SDS011;47256;18.904;-99.054;2022-11-24T06:12:50;9.65;;;6.57;;
61385;SDS011;47256;18.904;-99.054;2022-11-24T06:15:17;14.45;;;7.18;;
61385;SDS011;47256;18.904;-99.054;2022-11-24T06:17:50;11.63;;;7.20;;
61385;SDS011;47256;18.904;-99.054;2022-11-24T06:20:19;11.60;;;7.03;;
61385;SDS011;47256;18.904;-99.054;2022-11-24T06:22:47;10.48;;;7.05;;
61385;SDS011;47256;18.904;-99.054;2022-11-24T06:25:16;12.07;;;6.95;;
61385;SDS011;47256;18.904;-99.054;2022-11-24T06:27:43;11.48;;;7.15;;
61385;SDS011;47256;18.904;-99.054;2022-11-24T06:30:11;10.07;;;6.82;;
61385;SDS011;47256;18.904;-99.054;2022-11-24T06:32:39;14.98;;;6.75;;
61385;SDS011;47256;18.904;-99.054;2022-11-24T06:35:10;11.43;;;6.65;;
61385;SDS011;47256;18.904;-99.054;2022-11-24T06:37:38;11.50;;;5.88;;
61385;SDS011;47256;18.904;-99.054;2022-11-24T06:40:06;9.73;;;6.18;;
61385;SDS011;47256;18.904;-99.054;2022-11-24T06:42:36;13.23;;;6.88;;
61385;SDS011;47256;18.904;-99.054;2022-11-24T06:45:04;11.07;;;6.75;;
61385;SDS011;47256;18.904;-99.054;2022-11-24T06:47:31;14.60;;;6.53;;
61385;SDS011;47256;18.904;-99.054;2022-11-24T06:50:01;10.93;;;6.78;;
61385;SDS011;47256;18.904;-99.054;2022-11-24T06:52:28;11.60;;;6.50;;
61385;SDS011;47256;18.904;-99.054;2022-11-24T06:54:57;11.82;;;6.43;;
61385;SDS011;47256;18.904;-99.054;2022-11-24T06:57:27;10.30;;;6.82;;
61385;SDS011;47256;18.904;-99.054;2022-11-24T06:59:57;9.77;;;6.35;;
61385;SDS011;47256;18.904;-99.054;2022-11-24T07:02:25;11.82;;;7.90;;
61385;SDS011;47256;18.904;-99.054;2022-11-24T07:04:52;12.18;;;6.95;;
61385;SDS011;47256;18.904;-99.054;2022-11-24T07:07:21;12.65;;;7.13;;
61385;SDS011;47256;18.904;-99.054;2022-11-24T07:09:47;12.32;;;7.10;;
61385;SDS011;47256;18.904;-99.054;2022-11-24T07:12:17;13.43;;;7.35;;
61385;SDS011;47256;18.904;-99.054;2022-11-24T07:14:44;16.00;;;8.00;;
61385;SDS011;47256;18.904;-99.054;2022-11-24T07:17:11;12.23;;;7.97;;
61385;SDS011;47256;18.904;-99.054;2022-11-24T07:19:38;15.18;;;7.90;;
61385;SDS011;47256;18.904;-99.054;2022-11-24T07:22:05;15.70;;;8.82;;
61385;SDS011;47256;18.904;-99.054;2022-11-24T07:24:32;14.38;;;7.32;;
61385;SDS011;47256;18.904;-99.054;2022-11-24T07:27:00;11.32;;;7.28;;
61385;SDS011;47256;18.904;-99.054;2022-11-24T07:29:27;9.95;;;7.10;;
61385;SDS011;47256;18.904;-99.054;2022-11-24T07:31:54;19.60;;;8.30;;
61385;SDS011;47256;18.904;-99.054;2022-11-24T07:34:21;14.07;;;8.95;;
61385;SDS011;47256;18.904;-99.054;2022-11-24T07:36:48;15.50;;;9.35;;
61385;SDS011;47256;18.904;-99.054;2022-11-24T07:39:16;18.15;;;8.25;;
61385;SDS011;47256;18.904;-99.054;2022-11-24T07:41:43;14.45;;;8.02;;
61385;SDS011;47256;18.904;-99.054;2022-11-24T07:44:10;20.17;;;8.55;;
61385;SDS011;47256;18.904;-99.054;2022-11-24T07:46:37;13.30;;;7.40;;
61385;SDS011;47256;18.904;-99.054;2022-11-24T07:49:04;9.00;;;6.28;;
61385;SDS011;47256;18.904;-99.054;2022-11-24T07:51:33;12.52;;;7.18;;
61385;SDS011;47256;18.904;-99.054;2022-11-24T07:54:01;14.27;;;6.82;;
61385;SDS011;47256;18.904;-99.054;2022-11-24T07:56:29;11.98;;;7.53;;
61385;SDS011;47256;18.904;-99.054;2022-11-24T07:59:01;14.63;;;7.03;;
61385;SDS011;47256;18.904;-99.054;2022-11-24T08:01:29;19.38;;;6.85;;
61385;SDS011;47256;18.904;-99.054;2022-11-24T08:03:56;13.68;;;7.28;;
61385;SDS011;47256;18.904;-99.054;2022-11-24T08:06:24;9.88;;;6.85;;
61385;SDS011;47256;18.904;-99.054;2022-11-24T08:08:56;10.82;;;7.25;;
61385;SDS011;47256;18.904;-99.054;2022-11-24T08:11:24;18.50;;;7.32;;
61385;SDS011;47256;18.904;-99.054;2022-11-24T08:13:51;8.90;;;6.35;;
61385;SDS011;47256;18.904;-99.054;2022-11-24T08:16:18;10.98;;;7.22;;
61385;SDS011;47256;18.904;-99.054;2022-11-24T08:18:54;10.65;;;7.00;;
61385;SDS011;47256;18.904;-99.054;2022-11-24T08:21:22;9.32;;;6.20;;
61385;SDS011;47256;18.904;-99.054;2022-11-24T08:23:53;11.25;;;6.95;;
61385;SDS011;47256;18.904;-99.054;2022-11-24T08:26:21;11.32;;;6.57;;
61385;SDS011;47256;18.904;-99.054;2022-11-24T08:28:56;9.63;;;6.32;;
61385;SDS011;47256;18.904;-99.054;2022-11-24T08:31:24;9.85;;;6.55;;
61385;SDS011;47256;18.904;-99.054;2022-11-24T08:33:58;11.93;;;7.03;;
61385;SDS011;47256;18.904;-99.054;2022-11-24T08:36:27;11.50;;;6.80;;
61385;SDS011;47256;18.904;-99.054;2022-11-24T08:38:56;10.85;;;6.72;;
61385;SDS011;47256;18.904;-99.054;2022-11-24T08:41:25;10.57;;;6.65;;
61385;SDS011;47256;18.904;-99.054;2022-11-24T08:43:54;9.18;;;6.20;;
61385;SDS011;47256;18.904;-99.054;2022-11-24T08:46:21;11.70;;;6.68;;
61385;SDS011;47256;18.904;-99.054;2022-11-24T08:48:50;8.13;;;6.13;;
61385;SDS011;47256;18.904;-99.054;2022-11-24T08:51:23;12.75;;;6.88;;
61385;SDS011;47256;18.904;-99.054;2022-11-24T08:53:58;14.23;;;6.20;;
61385;SDS011;47256;18.904;-99.054;2022-11-24T08:56:28;10.23;;;6.60;;
61385;SDS011;47256;18.904;-99.054;2022-11-24T08:59:01;10.55;;;6.65;;
61385;SDS011;47256;18.904;-99.054;2022-11-24T09:01:28;14.05;;;6.78;;
61385;SDS011;47256;18.904;-99.054;2022-11-24T09:03:57;9.70;;;6.07;;
61385;SDS011;47256;18.904;-99.054;2022-11-24T09:06:26;13.00;;;7.43;;
61385;SDS011;47256;18.904;-99.054;2022-11-24T09:08:56;9.35;;;5.95;;
61385;SDS011;47256;18.904;-99.054;2022-11-24T09:11:24;20.55;;;6.60;;
61385;SDS011;47256;18.904;-99.054;2022-11-24T09:13:52;8.18;;;5.90;;
61385;SDS011;47256;18.904;-99.054;2022-11-24T09:16:22;12.27;;;6.45;;
61385;SDS011;47256;18.904;-99.054;2022-11-24T09:18:58;9.98;;;6.63;;
61385;SDS011;47256;18.904;-99.054;2022-11-24T09:21:28;12.23;;;6.88;;
61385;SDS011;47256;18.904;-99.054;2022-11-24T09:23:57;16.27;;;7.97;;
61385;SDS011;47256;18.904;-99.054;2022-11-24T09:26:28;14.60;;;7.97;;
61385;SDS011;47256;18.904;-99.054;2022-11-24T09:28:59;13.70;;;7.68;;
61385;SDS011;47256;18.904;-99.054;2022-11-24T09:31:28;12.63;;;7.25;;
61385;SDS011;47256;18.904;-99.054;2022-11-24T09:34:00;15.30;;;8.43;;
61385;SDS011;47256;18.904;-99.054;2022-11-24T09:36:28;13.10;;;7.55;;
61385;SDS011;47256;18.904;-99.054;2022-11-24T09:38:57;12.32;;;8.00;;
61385;SDS011;47256;18.904;-99.054;2022-11-24T09:41:43;18.63;;;7.85;;
61385;SDS011;47256;18.904;-99.054;2022-11-24T09:48:06;16.83;;;9.30;;
61385;SDS011;47256;18.904;-99.054;2022-11-24T09:50:30;14.90;;;8.18;;
61385;SDS011;47256;18.904;-99.054;2022-11-24T09:55:54;16.80;;;7.53;;
61385;SDS011;47256;18.904;-99.054;2022-11-24T09:58:34;14.27;;;8.20;;
61385;SDS011;47256;18.904;-99.054;2022-11-24T10:01:20;10.50;;;6.97;;
61385;SDS011;47256;18.904;-99.054;2022-11-24T10:03:55;15.48;;;9.05;;
61385;SDS011;47256;18.904;-99.054;2022-11-24T10:06:24;12.95;;;7.32;;
61385;SDS011;47256;18.904;-99.054;2022-11-24T10:18:16;9.25;;;6.60;;
61385;SDS011;47256;18.904;-99.054;2022-11-24T10:26:50;10.48;;;7.72;;
61385;SDS011;47256;18.904;-99.054;2022-11-24T10:31:56;11.80;;;8.48;;
61385;SDS011;47256;18.904;-99.054;2022-11-24T10:34:29;13.88;;;7.50;;
61385;SDS011;47256;18.904;-99.054;2022-11-24T10:37:18;14.25;;;7.22;;
61385;SDS011;47256;18.904;-99.054;2022-11-24T10:40:14;19.67;;;8.75;;
61385;SDS011;47256;18.904;-99.054;2022-11-24T10:42:58;9.88;;;6.47;;
61385;SDS011;47256;18.904;-99.054;2022-11-24T10:45:27;11.57;;;6.47;;
61385;SDS011;47256;18.904;-99.054;2022-11-24T10:47:54;11.23;;;6.85;;
61385;SDS011;47256;18.904;-99.054;2022-11-24T10:50:27;16.92;;;7.28;;
61385;SDS011;47256;18.904;-99.054;2022-11-24T10:56:18;12.20;;;6.75;;
61385;SDS011;47256;18.904;-99.054;2022-11-24T10:58:41;22.25;;;7.57;;
61385;SDS011;47256;18.904;-99.054;2022-11-24T11:03:48;12.75;;;7.05;;
61385;SDS011;47256;18.904;-99.054;2022-11-24T11:06:27;13.10;;;7.70;;
61385;SDS011;47256;18.904;-99.054;2022-11-24T11:11:33;9.70;;;6.72;;
61385;SDS011;47256;18.904;-99.054;2022-11-24T11:14:04;12.43;;;6.53;;
61385;SDS011;47256;18.904;-99.054;2022-11-24T11:16:43;10.77;;;6.50;;
61385;SDS011;47256;18.904;-99.054;2022-11-24T11:19:37;12.63;;;7.07;;
61385;SDS011;47256;18.904;-99.054;2022-11-24T11:24:45;14.60;;;7.72;;
61385;SDS011;47256;18.904;-99.054;2022-11-24T11:27:18;12.05;;;6.57;;
61385;SDS011;47256;18.904;-99.054;2022-11-24T11:29:50;10.23;;;7.00;;
61385;SDS011;47256;18.904;-99.054;2022-11-24T11:32:19;9.35;;;6.93;;
61385;SDS011;47256;18.904;-99.054;2022-11-24T11:34:52;10.20;;;7.18;;
61385;SDS011;47256;18.904;-99.054;2022-11-24T11:37:26;10.48;;;6.03;;
61385;SDS011;47256;18.904;-99.054;2022-11-24T11:39:58;13.15;;;7.18;;
61385;SDS011;47256;18.904;-99.054;2022-11-24T11:45:14;14.88;;;7.40;;
61385;SDS011;47256;18.904;-99.054;2022-11-24T11:47:51;10.90;;;6.83;;
61385;SDS011;47256;18.904;-99.054;2022-11-24T11:50:43;10.40;;;6.68;;
61385;SDS011;47256;18.904;-99.054;2022-11-24T11:56:25;12.18;;;6.88;;
61385;SDS011;47256;18.904;-99.054;2022-11-24T11:59:03;9.93;;;6.55;;
61385;SDS011;47256;18.904;-99.054;2022-11-24T12:02:52;11.60;;;6.90;;
61385;SDS011;47256;18.904;-99.054;2022-11-24T12:08:30;14.65;;;7.72;;
61385;SDS011;47256;18.904;-99.054;2022-11-24T12:13:53;10.98;;;7.13;;
61385;SDS011;47256;18.904;-99.054;2022-11-24T12:19:15;11.07;;;8.13;;
61385;SDS011;47256;18.904;-99.054;2022-11-24T12:30:26;16.58;;;8.23;;
61385;SDS011;47256;18.904;-99.054;2022-11-24T12:33:27;13.55;;;7.68;;
61385;SDS011;47256;18.904;-99.054;2022-11-24T12:39:23;15.52;;;8.10;;
61385;SDS011;47256;18.904;-99.054;2022-11-24T12:47:56;15.27;;;7.78;;
61385;SDS011;47256;18.904;-99.054;2022-11-24T12:50:44;16.42;;;8.43;;
61385;SDS011;47256;18.904;-99.054;2022-11-24T12:55:45;20.63;;;8.07;;
61385;SDS011;47256;18.904;-99.054;2022-11-24T12:58:28;24.42;;;8.07;;
61385;SDS011;47256;18.904;-99.054;2022-11-24T13:06:48;19.23;;;8.07;;
61385;SDS011;47256;18.904;-99.054;2022-11-24T13:09:22;13.85;;;7.38;;
61385;SDS011;47256;18.904;-99.054;2022-11-24T13:11:50;16.92;;;7.25;;
61385;SDS011;47256;18.904;-99.054;2022-11-24T13:16:52;14.52;;;7.60;;
61385;SDS011;47256;18.904;-99.054;2022-11-24T13:19:20;15.48;;;8.10;;
61385;SDS011;47256;18.904;-99.054;2022-11-24T13:22:00;14.60;;;7.13;;
61385;SDS011;47256;18.904;-99.054;2022-11-24T13:24:36;19.52;;;7.75;;
61385;SDS011;47256;18.904;-99.054;2022-11-24T13:29:52;11.35;;;6.57;;
61385;SDS011;47256;18.904;-99.054;2022-11-24T13:40:00;16.00;;;7.57;;
61385;SDS011;47256;18.904;-99.054;2022-11-24T13:58:40;14.80;;;8.75;;
61385;SDS011;47256;18.904;-99.054;2022-11-24T14:04:04;16.10;;;8.27;;
61385;SDS011;47256;18.904;-99.054;2022-11-24T14:06:43;22.40;;;9.30;;
61385;SDS011;47256;18.904;-99.054;2022-11-24T14:12:14;13.73;;;9.00;;
61385;SDS011;47256;18.904;-99.054;2022-11-24T14:14:49;20.33;;;8.98;;
61385;SDS011;47256;18.904;-99.054;2022-11-24T14:17:22;14.13;;;8.90;;
61385;SDS011;47256;18.904;-99.054;2022-11-24T14:19:53;16.25;;;8.85;;
61385;SDS011;47256;18.904;-99.054;2022-11-24T14:22:23;12.73;;;8.05;;
61385;SDS011;47256;18.904;-99.054;2022-11-24T14:24:56;15.52;;;9.30;;
61385;SDS011;47256;18.904;-99.054;2022-11-24T14:27:29;18.23;;;9.65;;
61385;SDS011;47256;18.904;-99.054;2022-11-24T14:30:02;20.02;;;8.85;;
61385;SDS011;47256;18.904;-99.054;2022-11-24T14:32:34;17.42;;;8.57;;
61385;SDS011;47256;18.904;-99.054;2022-11-24T14:35:27;12.07;;;7.57;;
61385;SDS011;47256;18.904;-99.054;2022-11-24T14:38:11;20.30;;;7.93;;
61385;SDS011;47256;18.904;-99.054;2022-11-24T14:40:45;14.95;;;9.02;;
61385;SDS011;47256;18.904;-99.054;2022-11-24T14:45:52;16.98;;;8.23;;
61385;SDS011;47256;18.904;-99.054;2022-11-24T14:48:34;18.55;;;8.85;;
61385;SDS011;47256;18.904;-99.054;2022-11-24T14:51:05;15.23;;;9.20;;
61385;SDS011;47256;18.904;-99.054;2022-11-24T14:53:46;32.33;;;9.73;;
61385;SDS011;47256;18.904;-99.054;2022-11-24T14:59:00;16.70;;;8.20;;
61385;SDS011;47256;18.904;-99.054;2022-11-24T15:01:32;13.05;;;7.63;;
61385;SDS011;47256;18.904;-99.054;2022-11-24T15:04:15;11.45;;;6.95;;
61385;SDS011;47256;18.904;-99.054;2022-11-24T15:06:58;12.15;;;7.10;;
61385;SDS011;47256;18.904;-99.054;2022-11-24T15:12:02;10.27;;;7.07;;
61385;SDS011;47256;18.904;-99.054;2022-11-24T15:14:35;12.18;;;6.88;;
61385;SDS011;47256;18.904;-99.054;2022-11-24T15:17:16;8.15;;;5.15;;
61385;SDS011;47256;18.904;-99.054;2022-11-24T15:22:40;11.85;;;6.70;;
61385;SDS011;47256;18.904;-99.054;2022-11-24T15:25:28;12.70;;;6.75;;
61385;SDS011;47256;18.904;-99.054;2022-11-24T15:27:57;10.00;;;5.55;;
61385;SDS011;47256;18.904;-99.054;2022-11-24T15:30:26;15.50;;;6.18;;
61385;SDS011;47256;18.904;-99.054;2022-11-24T15:32:58;21.40;;;6.43;;
61385;SDS011;47256;18.904;-99.054;2022-11-24T15:35:30;11.63;;;6.60;;
61385;SDS011;47256;18.904;-99.054;2022-11-24T15:38:02;8.68;;;5.47;;
61385;SDS011;47256;18.904;-99.054;2022-11-24T15:40:29;20.73;;;6.57;;
61385;SDS011;47256;18.904;-99.054;2022-11-24T15:42:57;10.18;;;5.90;;
61385;SDS011;47256;18.904;-99.054;2022-11-24T15:45:24;11.00;;;6.38;;
61385;SDS011;47256;18.904;-99.054;2022-11-24T15:47:52;11.65;;;6.43;;
61385;SDS011;47256;18.904;-99.054;2022-11-24T15:50:26;10.68;;;6.10;;
61385;SDS011;47256;18.904;-99.054;2022-11-24T15:52:53;10.65;;;6.70;;
61385;SDS011;47256;18.904;-99.054;2022-11-24T15:55:25;14.70;;;6.50;;
61385;SDS011;47256;18.904;-99.054;2022-11-24T15:57:52;21.88;;;10.75;;
61385;SDS011;47256;18.904;-99.054;2022-11-24T16:00:23;16.98;;;9.02;;
61385;SDS011;47256;18.904;-99.054;2022-11-24T16:02:50;22.77;;;10.57;;
61385;SDS011;47256;18.904;-99.054;2022-11-24T16:05:18;12.77;;;7.78;;
61385;SDS011;47256;18.904;-99.054;2022-11-24T16:07:45;13.82;;;7.85;;
61385;SDS011;47256;18.904;-99.054;2022-11-24T16:10:22;22.55;;;6.45;;
61385;SDS011;47256;18.904;-99.054;2022-11-24T16:12:57;8.70;;;5.10;;
61385;SDS011;47256;18.904;-99.054;2022-11-24T16:15:26;9.85;;;5.47;;
61385;SDS011;47256;18.904;-99.054;2022-11-24T16:17:54;12.63;;;6.10;;
61385;SDS011;47256;18.904;-99.054;2022-11-24T16:20:26;8.70;;;5.78;;
61385;SDS011;47256;18.904;-99.054;2022-11-24T16:22:53;9.52;;;6.07;;
61385;SDS011;47256;18.904;-99.054;2022-11-24T16:25:21;19.67;;;7.20;;
61385;SDS011;47256;18.904;-99.054;2022-11-24T16:27:48;10.18;;;6.75;;
61385;SDS011;47256;18.904;-99.054;2022-11-24T16:30:17;16.77;;;7.68;;
61385;SDS011;47256;18.904;-99.054;2022-11-24T16:32:44;12.88;;;7.10;;
61385;SDS011;47256;18.904;-99.054;2022-11-24T16:38:04;23.83;;;8.80;;
61385;SDS011;47256;18.904;-99.054;2022-11-24T16:40:32;16.05;;;9.45;;
61385;SDS011;47256;18.904;-99.054;2022-11-24T16:43:00;16.80;;;8.57;;
61385;SDS011;47256;18.904;-99.054;2022-11-24T16:45:28;14.93;;;8.15;;
61385;SDS011;47256;18.904;-99.054;2022-11-24T16:47:59;23.88;;;13.50;;
61385;SDS011;47256;18.904;-99.054;2022-11-24T16:50:28;16.88;;;10.20;;
61385;SDS011;47256;18.904;-99.054;2022-11-24T16:52:55;16.23;;;9.88;;